sensor_id;sensor_type;location;lat;lon;timestamp;pressure;altitude;pressure_sealevel;temperature;humidity
30708;BME280;17458;48.958;8.284;2023-03-25T00:00:44;99776.53;;;11.65;74.06
30708;BME280;17458;48.958;8.284;2023-03-25T00:03:31;99770.06;;;11.58;73.40
30708;BME280;17458;48.958;8.284;2023-03-25T00:06:20;99754.41;;;11.67;71.97
30708;BME280;17458;48.958;8.284;2023-03-25T00:09:04;99753.00;;;11.76;71.28
30708;BME280;17458;48.958;8.284;2023-03-25T00:11:49;99741.59;;;11.80;70.16
30708;BME280;17458;48.958;8.284;2023-03-25T00:14:33;99758.63;;;11.61;69.88
30708;BME280;17458;48.958;8.284;2023-03-25T00:17:17;99753.56;;;11.68;69.77
30708;BME280;17458;48.958;8.284;2023-03-25T00:20:04;99745.75;;;11.48;70.59
30708;BME280;17458;48.958;8.284;2023-03-25T00:22:51;99738.47;;;11.67;69.53
30708;BME280;17458;48.958;8.284;2023-03-25T00:25:35;99745.53;;;11.67;69.72
30708;BME280;17458;48.958;8.284;2023-03-25T00:28:19;99740.88;;;11.60;70.36
30708;BME280;17458;48.958;8.284;2023-03-25T00:31:06;99740.66;;;11.78;71.65
30708;BME280;17458;48.958;8.284;2023-03-25T00:33:51;99743.41;;;11.81;71.38
30708;BME280;17458;48.958;8.284;2023-03-25T00:36:35;99737.63;;;11.68;72.52
30708;BME280;17458;48.958;8.284;2023-03-25T00:39:20;99732.75;;;11.81;72.25
30708;BME280;17458;48.958;8.284;2023-03-25T00:42:04;99723.72;;;11.76;72.64
30708;BME280;17458;48.958;8.284;2023-03-25T00:44:48;99725.25;;;11.94;71.75
30708;BME280;17458;48.958;8.284;2023-03-25T00:47:32;99719.31;;;12.01;71.39
30708;BME280;17458;48.958;8.284;2023-03-25T00:50:16;99722.06;;;12.04;71.27
30708;BME280;17458;48.958;8.284;2023-03-25T00:53:00;99711.81;;;11.90;71.69
30708;BME280;17458;48.958;8.284;2023-03-25T00:55:46;99709.84;;;11.84;71.87
30708;BME280;17458;48.958;8.284;2023-03-25T00:58:30;99709.38;;;11.72;71.54
30708;BME280;17458;48.958;8.284;2023-03-25T01:01:17;99707.06;;;12.06;70.11
30708;BME280;17458;48.958;8.284;2023-03-25T01:04:06;99701.78;;;11.83;69.38
30708;BME280;17458;48.958;8.284;2023-03-25T01:06:55;99691.50;;;11.92;68.91
30708;BME280;17458;48.958;8.284;2023-03-25T01:09:38;99695.31;;;12.27;67.56
30708;BME280;17458;48.958;8.284;2023-03-25T01:12:24;99681.13;;;12.01;67.71
30708;BME280;17458;48.958;8.284;2023-03-25T01:15:09;99678.53;;;12.02;66.80
30708;BME280;17458;48.958;8.284;2023-03-25T01:17:53;99665.69;;;11.89;67.26
30708;BME280;17458;48.958;8.284;2023-03-25T01:20:39;99688.53;;;11.84;66.53
30708;BME280;17458;48.958;8.284;2023-03-25T01:23:23;99695.59;;;12.09;65.87
30708;BME280;17458;48.958;8.284;2023-03-25T01:26:07;99712.84;;;11.95;67.48
30708;BME280;17458;48.958;8.284;2023-03-25T01:28:50;99734.25;;;11.49;70.73
30708;BME280;17458;48.958;8.284;2023-03-25T01:31:36;99745.63;;;11.45;71.80
30708;BME280;17458;48.958;8.284;2023-03-25T01:34:20;99802.56;;;11.51;72.57
30708;BME280;17458;48.958;8.284;2023-03-25T01:37:05;99785.00;;;10.86;72.95
30708;BME280;17458;48.958;8.284;2023-03-25T01:39:49;99784.00;;;11.05;72.21
30708;BME280;17458;48.958;8.284;2023-03-25T01:42:33;99772.78;;;10.90;73.72
30708;BME280;17458;48.958;8.284;2023-03-25T01:45:20;99773.13;;;10.77;75.05
30708;BME280;17458;48.958;8.284;2023-03-25T01:48:09;99760.03;;;11.04;74.63
30708;BME280;17458;48.958;8.284;2023-03-25T01:51:02;99759.13;;;10.81;75.17
30708;BME280;17458;48.958;8.284;2023-03-25T01:53:47;99772.88;;;10.71;75.17
30708;BME280;17458;48.958;8.284;2023-03-25T01:56:35;99768.13;;;10.41;76.17
30708;BME280;17458;48.958;8.284;2023-03-25T01:59:24;99755.91;;;10.45;76.39
30708;BME280;17458;48.958;8.284;2023-03-25T02:02:10;99735.63;;;10.47;76.63
30708;BME280;17458;48.958;8.284;2023-03-25T02:05:02;99734.59;;;10.02;76.76
30708;BME280;17458;48.958;8.284;2023-03-25T02:07:48;99724.34;;;10.30;75.39
30708;BME280;17458;48.958;8.284;2023-03-25T02:10:33;99722.97;;;10.62;74.63
30708;BME280;17458;48.958;8.284;2023-03-25T02:13:18;99727.25;;;10.58;74.40
30708;BME280;17458;48.958;8.284;2023-03-25T02:19:11;99744.63;;;10.50;74.16
30708;BME280;17458;48.958;8.284;2023-03-25T02:22:24;99739.75;;;10.61;74.90
30708;BME280;17458;48.958;8.284;2023-03-25T02:28:35;99743.19;;;10.36;75.31
30708;BME280;17458;48.958;8.284;2023-03-25T02:40:49;99752.31;;;10.65;74.21
30708;BME280;17458;48.958;8.284;2023-03-25T02:46:34;99750.06;;;10.76;73.65
30708;BME280;17458;48.958;8.284;2023-03-25T02:49:50;99760.56;;;10.50;75.22
30708;BME280;17458;48.958;8.284;2023-03-25T02:52:40;99767.69;;;10.74;74.83
30708;BME280;17458;48.958;8.284;2023-03-25T02:55:27;99755.25;;;10.73;74.55
30708;BME280;17458;48.958;8.284;2023-03-25T02:58:18;99751.22;;;10.60;75.05
30708;BME280;17458;48.958;8.284;2023-03-25T03:01:05;99758.75;;;10.49;75.49
30708;BME280;17458;48.958;8.284;2023-03-25T03:03:49;99758.22;;;10.58;75.04
30708;BME280;17458;48.958;8.284;2023-03-25T03:06:38;99769.03;;;10.62;74.42
30708;BME280;17458;48.958;8.284;2023-03-25T03:09:32;99772.44;;;10.60;74.84
30708;BME280;17458;48.958;8.284;2023-03-25T03:25:19;99768.75;;;10.56;72.89
30708;BME280;17458;48.958;8.284;2023-03-25T03:28:22;99766.03;;;10.55;73.31
30708;BME280;17458;48.958;8.284;2023-03-25T03:31:18;99769.38;;;10.49;72.74
30708;BME280;17458;48.958;8.284;2023-03-25T03:34:07;99772.25;;;10.55;72.88
30708;BME280;17458;48.958;8.284;2023-03-25T03:36:54;99771.00;;;10.46;73.14
30708;BME280;17458;48.958;8.284;2023-03-25T03:39:41;99771.41;;;10.56;73.03
30708;BME280;17458;48.958;8.284;2023-03-25T03:42:33;99774.69;;;10.49;72.46
30708;BME280;17458;48.958;8.284;2023-03-25T03:45:26;99789.72;;;10.71;72.75
30708;BME280;17458;48.958;8.284;2023-03-25T03:48:25;99778.53;;;10.57;72.92
30708;BME280;17458;48.958;8.284;2023-03-25T03:51:15;99788.09;;;10.75;71.72
30708;BME280;17458;48.958;8.284;2023-03-25T03:54:08;99791.66;;;10.75;72.61
30708;BME280;17458;48.958;8.284;2023-03-25T03:57:07;99790.00;;;10.56;72.16
30708;BME280;17458;48.958;8.284;2023-03-25T04:00:04;99786.78;;;10.63;72.65
30708;BME280;17458;48.958;8.284;2023-03-25T04:03:31;99785.94;;;10.64;71.80
30708;BME280;17458;48.958;8.284;2023-03-25T04:06:18;99766.78;;;10.51;71.24
30708;BME280;17458;48.958;8.284;2023-03-25T04:12:14;99780.28;;;10.57;69.93
30708;BME280;17458;48.958;8.284;2023-03-25T04:15:02;99803.66;;;10.65;70.25
30708;BME280;17458;48.958;8.284;2023-03-25T04:17:46;99783.72;;;10.54;69.79
30708;BME280;17458;48.958;8.284;2023-03-25T04:20:32;99800.38;;;10.93;69.09
30708;BME280;17458;48.958;8.284;2023-03-25T04:23:17;99788.66;;;10.88;68.26
30708;BME280;17458;48.958;8.284;2023-03-25T04:26:02;99798.84;;;11.00;68.57
30708;BME280;17458;48.958;8.284;2023-03-25T04:28:46;99791.25;;;10.87;68.63
30708;BME280;17458;48.958;8.284;2023-03-25T04:31:30;99766.97;;;11.00;67.78
30708;BME280;17458;48.958;8.284;2023-03-25T04:34:14;99762.56;;;11.00;68.97
30708;BME280;17458;48.958;8.284;2023-03-25T04:36:58;99762.69;;;11.04;67.93
30708;BME280;17458;48.958;8.284;2023-03-25T04:39:42;99772.41;;;10.81;68.36
30708;BME280;17458;48.958;8.284;2023-03-25T04:42:28;99782.72;;;10.95;68.01
30708;BME280;17458;48.958;8.284;2023-03-25T04:45:17;99770.00;;;10.87;67.65
30708;BME280;17458;48.958;8.284;2023-03-25T04:48:02;99763.47;;;11.01;67.28
30708;BME280;17458;48.958;8.284;2023-03-25T04:50:48;99770.13;;;11.36;65.99
30708;BME280;17458;48.958;8.284;2023-03-25T04:53:35;99773.78;;;11.16;66.90
30708;BME280;17458;48.958;8.284;2023-03-25T04:56:19;99772.75;;;11.12;66.74
30708;BME280;17458;48.958;8.284;2023-03-25T04:59:03;99768.72;;;10.99;67.23
30708;BME280;17458;48.958;8.284;2023-03-25T05:01:55;99773.06;;;11.20;65.84
30708;BME280;17458;48.958;8.284;2023-03-25T05:04:39;99782.91;;;11.22;66.02
30708;BME280;17458;48.958;8.284;2023-03-25T05:07:30;99794.53;;;11.26;65.90
30708;BME280;17458;48.958;8.284;2023-03-25T05:10:18;99793.69;;;11.27;65.86
30708;BME280;17458;48.958;8.284;2023-03-25T05:13:05;99790.88;;;11.22;65.50
30708;BME280;17458;48.958;8.284;2023-03-25T05:15:50;99790.75;;;11.19;65.48
30708;BME280;17458;48.958;8.284;2023-03-25T05:18:34;99791.66;;;11.20;65.47
30708;BME280;17458;48.958;8.284;2023-03-25T05:21:18;99793.63;;;11.25;65.46
30708;BME280;17458;48.958;8.284;2023-03-25T05:24:03;99785.16;;;11.35;64.96
30708;BME280;17458;48.958;8.284;2023-03-25T05:26:48;99791.41;;;11.14;65.67
30708;BME280;17458;48.958;8.284;2023-03-25T05:29:32;99793.09;;;11.34;65.21
30708;BME280;17458;48.958;8.284;2023-03-25T05:32:16;99787.72;;;11.10;65.24
30708;BME280;17458;48.958;8.284;2023-03-25T05:35:01;99796.97;;;11.20;65.63
30708;BME280;17458;48.958;8.284;2023-03-25T05:37:45;99798.50;;;11.37;64.99
30708;BME280;17458;48.958;8.284;2023-03-25T05:40:30;99803.25;;;11.22;65.35
30708;BME280;17458;48.958;8.284;2023-03-25T05:43:16;99796.41;;;11.28;66.18
30708;BME280;17458;48.958;8.284;2023-03-25T05:46:05;99799.78;;;11.24;66.65
30708;BME280;17458;48.958;8.284;2023-03-25T05:48:50;99802.50;;;11.26;66.47
30708;BME280;17458;48.958;8.284;2023-03-25T05:51:34;99795.50;;;11.28;66.87
30708;BME280;17458;48.958;8.284;2023-03-25T05:54:21;99791.41;;;11.36;67.04
30708;BME280;17458;48.958;8.284;2023-03-25T05:57:07;99791.22;;;11.31;67.36
30708;BME280;17458;48.958;8.284;2023-03-25T05:59:52;99789.13;;;11.00;68.41
30708;BME280;17458;48.958;8.284;2023-03-25T06:02:36;99796.47;;;10.85;69.42
30708;BME280;17458;48.958;8.284;2023-03-25T06:05:21;99797.81;;;10.96;68.73
30708;BME280;17458;48.958;8.284;2023-03-25T06:08:15;99785.91;;;10.87;69.06
30708;BME280;17458;48.958;8.284;2023-03-25T06:10:59;99801.44;;;11.21;68.51
30708;BME280;17458;48.958;8.284;2023-03-25T06:13:47;99796.97;;;11.20;68.75
30708;BME280;17458;48.958;8.284;2023-03-25T06:16:34;99802.69;;;11.54;67.71
30708;BME280;17458;48.958;8.284;2023-03-25T06:19:18;99801.91;;;11.33;67.73
30708;BME280;17458;48.958;8.284;2023-03-25T06:22:02;99812.66;;;11.36;67.60
30708;BME280;17458;48.958;8.284;2023-03-25T06:24:46;99813.63;;;11.16;68.33
30708;BME280;17458;48.958;8.284;2023-03-25T06:27:31;99821.66;;;11.63;68.53
30708;BME280;17458;48.958;8.284;2023-03-25T06:30:19;99810.84;;;11.35;68.09
30708;BME280;17458;48.958;8.284;2023-03-25T06:33:03;99822.91;;;11.73;67.64
30708;BME280;17458;48.958;8.284;2023-03-25T06:35:51;99812.47;;;11.55;67.90
30708;BME280;17458;48.958;8.284;2023-03-25T06:38:39;99820.13;;;11.46;68.38
30708;BME280;17458;48.958;8.284;2023-03-25T06:41:27;99824.94;;;11.56;66.98
30708;BME280;17458;48.958;8.284;2023-03-25T06:44:27;99826.41;;;11.48;67.36
30708;BME280;17458;48.958;8.284;2023-03-25T06:47:30;99817.19;;;11.62;66.23
30708;BME280;17458;48.958;8.284;2023-03-25T06:50:14;99825.44;;;11.92;66.03
30708;BME280;17458;48.958;8.284;2023-03-25T06:52:58;99831.38;;;12.11;65.52
30708;BME280;17458;48.958;8.284;2023-03-25T06:55:42;99831.44;;;12.12;65.90
30708;BME280;17458;48.958;8.284;2023-03-25T06:58:27;99830.94;;;11.75;66.63
30708;BME280;17458;48.958;8.284;2023-03-25T07:01:17;99824.47;;;12.16;65.27
30708;BME280;17458;48.958;8.284;2023-03-25T07:04:01;99822.91;;;11.73;65.93
30708;BME280;17458;48.958;8.284;2023-03-25T07:06:49;99816.28;;;11.62;66.65
30708;BME280;17458;48.958;8.284;2023-03-25T07:09:33;99818.97;;;12.36;64.71
30708;BME280;17458;48.958;8.284;2023-03-25T07:12:18;99825.72;;;12.52;63.71
30708;BME280;17458;48.958;8.284;2023-03-25T07:15:02;99816.13;;;12.84;63.49
30708;BME280;17458;48.958;8.284;2023-03-25T07:17:48;99821.84;;;13.23;62.14
30708;BME280;17458;48.958;8.284;2023-03-25T07:20:32;99817.94;;;13.40;61.62
30708;BME280;17458;48.958;8.284;2023-03-25T07:23:16;99819.59;;;12.82;62.63
30708;BME280;17458;48.958;8.284;2023-03-25T07:26:00;99827.75;;;12.86;63.14
30708;BME280;17458;48.958;8.284;2023-03-25T07:28:45;99819.25;;;12.98;62.54
30708;BME280;17458;48.958;8.284;2023-03-25T07:31:30;99821.75;;;13.20;61.89
30708;BME280;17458;48.958;8.284;2023-03-25T07:34:15;99831.22;;;12.84;62.90
30708;BME280;17458;48.958;8.284;2023-03-25T07:36:58;99826.09;;;12.37;63.80
30708;BME280;17458;48.958;8.284;2023-03-25T07:39:45;99827.13;;;12.41;63.37
30708;BME280;17458;48.958;8.284;2023-03-25T07:42:29;99810.13;;;12.37;63.41
30708;BME280;17458;48.958;8.284;2023-03-25T07:45:33;99812.22;;;12.73;62.95
30708;BME280;17458;48.958;8.284;2023-03-25T07:48:17;99803.31;;;12.46;63.29
30708;BME280;17458;48.958;8.284;2023-03-25T07:51:01;99803.00;;;12.36;63.53
30708;BME280;17458;48.958;8.284;2023-03-25T07:53:45;99807.09;;;13.07;62.12
30708;BME280;17458;48.958;8.284;2023-03-25T07:56:30;99795.16;;;12.95;62.47
30708;BME280;17458;48.958;8.284;2023-03-25T07:59:15;99796.53;;;13.10;61.98
30708;BME280;17458;48.958;8.284;2023-03-25T08:02:01;99789.34;;;13.36;61.75
30708;BME280;17458;48.958;8.284;2023-03-25T08:04:45;99796.09;;;12.97;62.62
30708;BME280;17458;48.958;8.284;2023-03-25T08:07:30;99777.66;;;13.03;61.94
30708;BME280;17458;48.958;8.284;2023-03-25T08:10:15;99804.00;;;12.67;62.88
30708;BME280;17458;48.958;8.284;2023-03-25T08:12:59;99829.44;;;11.81;66.97
30708;BME280;17458;48.958;8.284;2023-03-25T08:15:43;99823.38;;;11.61;68.82
30708;BME280;17458;48.958;8.284;2023-03-25T08:18:27;99831.59;;;11.45;72.24
30708;BME280;17458;48.958;8.284;2023-03-25T08:21:15;99835.38;;;11.52;73.14
30708;BME280;17458;48.958;8.284;2023-03-25T08:23:59;99821.69;;;11.41;72.86
30708;BME280;17458;48.958;8.284;2023-03-25T08:26:45;99830.81;;;11.25;73.71
30708;BME280;17458;48.958;8.284;2023-03-25T08:29:32;99841.34;;;11.68;73.13
30708;BME280;17458;48.958;8.284;2023-03-25T08:32:17;99844.78;;;11.88;71.03
30708;BME280;17458;48.958;8.284;2023-03-25T08:35:02;99841.72;;;12.01;71.58
30708;BME280;17458;48.958;8.284;2023-03-25T08:37:49;99844.97;;;11.94;72.31
30708;BME280;17458;48.958;8.284;2023-03-25T08:40:41;99839.63;;;11.93;72.93
30708;BME280;17458;48.958;8.284;2023-03-25T08:43:26;99838.09;;;11.76;72.69
30708;BME280;17458;48.958;8.284;2023-03-25T08:46:10;99846.56;;;12.13;71.90
30708;BME280;17458;48.958;8.284;2023-03-25T08:48:54;99845.56;;;12.35;71.55
30708;BME280;17458;48.958;8.284;2023-03-25T08:51:38;99838.81;;;12.19;71.63
30708;BME280;17458;48.958;8.284;2023-03-25T08:54:27;99839.72;;;12.20;71.85
30708;BME280;17458;48.958;8.284;2023-03-25T08:57:11;99833.78;;;12.03;72.73
30708;BME280;17458;48.958;8.284;2023-03-25T08:59:56;99842.63;;;12.02;72.26
30708;BME280;17458;48.958;8.284;2023-03-25T09:02:40;99843.47;;;12.01;72.06
30708;BME280;17458;48.958;8.284;2023-03-25T09:05:25;99845.34;;;12.29;72.16
30708;BME280;17458;48.958;8.284;2023-03-25T09:08:10;99833.47;;;12.45;70.53
30708;BME280;17458;48.958;8.284;2023-03-25T09:10:54;99850.38;;;12.20;71.82
30708;BME280;17458;48.958;8.284;2023-03-25T09:13:39;99849.72;;;12.27;73.04
30708;BME280;17458;48.958;8.284;2023-03-25T09:16:23;99856.72;;;11.53;77.35
30708;BME280;17458;48.958;8.284;2023-03-25T09:19:08;99844.56;;;12.06;77.55
30708;BME280;17458;48.958;8.284;2023-03-25T09:21:53;99842.81;;;12.32;76.04
30708;BME280;17458;48.958;8.284;2023-03-25T09:24:37;99841.66;;;12.00;76.43
30708;BME280;17458;48.958;8.284;2023-03-25T09:27:21;99856.22;;;11.86;77.67
30708;BME280;17458;48.958;8.284;2023-03-25T09:30:06;99861.38;;;12.30;75.87
30708;BME280;17458;48.958;8.284;2023-03-25T09:32:51;99861.84;;;12.19;76.58
30708;BME280;17458;48.958;8.284;2023-03-25T09:35:34;99846.63;;;12.40;75.13
30708;BME280;17458;48.958;8.284;2023-03-25T09:38:23;99841.06;;;12.08;76.25
30708;BME280;17458;48.958;8.284;2023-03-25T09:41:22;99846.31;;;12.05;77.55
30708;BME280;17458;48.958;8.284;2023-03-25T09:44:26;99862.75;;;12.19;75.12
30708;BME280;17458;48.958;8.284;2023-03-25T09:47:11;99854.34;;;12.32;74.71
30708;BME280;17458;48.958;8.284;2023-03-25T09:50:02;99845.34;;;12.81;74.66
30708;BME280;17458;48.958;8.284;2023-03-25T09:53:22;99845.34;;;13.36;72.45
30708;BME280;17458;48.958;8.284;2023-03-25T09:56:16;99845.84;;;12.96;73.25
30708;BME280;17458;48.958;8.284;2023-03-25T09:59:21;99840.81;;;13.32;72.40
30708;BME280;17458;48.958;8.284;2023-03-25T10:15:26;99818.59;;;13.95;68.07
30708;BME280;17458;48.958;8.284;2023-03-25T10:21:32;99830.50;;;13.74;65.38
30708;BME280;17458;48.958;8.284;2023-03-25T10:24:25;99825.78;;;14.29;65.88
30708;BME280;17458;48.958;8.284;2023-03-25T10:27:38;99825.03;;;14.67;64.84
30708;BME280;17458;48.958;8.284;2023-03-25T10:30:26;99826.97;;;14.74;64.34
30708;BME280;17458;48.958;8.284;2023-03-25T10:33:35;99819.81;;;14.06;61.37
30708;BME280;17458;48.958;8.284;2023-03-25T10:36:31;99833.75;;;14.96;62.05
30708;BME280;17458;48.958;8.284;2023-03-25T10:39:19;99813.97;;;14.89;61.35
30708;BME280;17458;48.958;8.284;2023-03-25T10:42:15;99823.31;;;14.69;59.68
30708;BME280;17458;48.958;8.284;2023-03-25T10:45:02;99829.09;;;14.20;60.68
30708;BME280;17458;48.958;8.284;2023-03-25T10:47:47;99824.50;;;14.47;57.38
30708;BME280;17458;48.958;8.284;2023-03-25T10:50:32;99820.50;;;14.65;58.18
30708;BME280;17458;48.958;8.284;2023-03-25T10:53:24;99814.31;;;15.02;56.68
30708;BME280;17458;48.958;8.284;2023-03-25T10:56:27;99819.56;;;14.63;56.01
30708;BME280;17458;48.958;8.284;2023-03-25T10:59:29;99824.06;;;15.00;56.07
30708;BME280;17458;48.958;8.284;2023-03-25T11:02:21;99808.25;;;14.74;55.66
30708;BME280;17458;48.958;8.284;2023-03-25T11:05:08;99814.66;;;15.18;55.69
30708;BME280;17458;48.958;8.284;2023-03-25T11:07:57;99813.53;;;15.48;54.53
30708;BME280;17458;48.958;8.284;2023-03-25T11:10:47;99815.50;;;14.78;56.82
30708;BME280;17458;48.958;8.284;2023-03-25T11:13:34;99831.31;;;14.69;56.30
30708;BME280;17458;48.958;8.284;2023-03-25T11:16:20;99837.56;;;14.37;58.61
30708;BME280;17458;48.958;8.284;2023-03-25T11:19:20;99835.56;;;15.35;55.91
30708;BME280;17458;48.958;8.284;2023-03-25T11:22:15;99839.16;;;15.76;55.02
30708;BME280;17458;48.958;8.284;2023-03-25T11:25:05;99815.31;;;15.88;52.96
30708;BME280;17458;48.958;8.284;2023-03-25T11:28:11;99840.78;;;15.68;52.97
30708;BME280;17458;48.958;8.284;2023-03-25T11:31:15;99839.34;;;15.07;52.69
30708;BME280;17458;48.958;8.284;2023-03-25T11:34:04;99845.69;;;14.73;53.06
30708;BME280;17458;48.958;8.284;2023-03-25T11:36:59;99852.22;;;14.85;53.91
30708;BME280;17458;48.958;8.284;2023-03-25T11:39:51;99843.66;;;14.64;54.40
30708;BME280;17458;48.958;8.284;2023-03-25T11:42:39;99862.19;;;14.93;53.93
30708;BME280;17458;48.958;8.284;2023-03-25T11:45:40;99856.66;;;14.50;53.64
30708;BME280;17458;48.958;8.284;2023-03-25T11:48:33;99871.28;;;14.65;53.68
30708;BME280;17458;48.958;8.284;2023-03-25T11:51:27;99861.19;;;14.89;53.11
30708;BME280;17458;48.958;8.284;2023-03-25T11:54:14;99856.69;;;15.22;53.69
30708;BME280;17458;48.958;8.284;2023-03-25T11:57:06;99859.75;;;15.78;54.11
30708;BME280;17458;48.958;8.284;2023-03-25T12:00:02;99856.63;;;15.57;53.33
30708;BME280;17458;48.958;8.284;2023-03-25T12:03:19;99848.88;;;15.72;52.68
30708;BME280;17458;48.958;8.284;2023-03-25T12:08:59;99835.69;;;15.03;54.36
30708;BME280;17458;48.958;8.284;2023-03-25T12:12:03;99856.91;;;15.33;53.42
30708;BME280;17458;48.958;8.284;2023-03-25T12:33:25;99820.22;;;16.10;48.91
30708;BME280;17458;48.958;8.284;2023-03-25T12:37:10;99821.38;;;15.00;49.82
30708;BME280;17458;48.958;8.284;2023-03-25T12:43:10;99829.78;;;14.79;50.30
30708;BME280;17458;48.958;8.284;2023-03-25T12:46:46;99820.50;;;15.01;48.44
30708;BME280;17458;48.958;8.284;2023-03-25T12:55:48;99828.94;;;15.56;45.27
30708;BME280;17458;48.958;8.284;2023-03-25T12:58:47;99825.97;;;15.85;43.39
30708;BME280;17458;48.958;8.284;2023-03-25T13:02:01;99840.75;;;15.27;43.75
30708;BME280;17458;48.958;8.284;2023-03-25T13:05:21;99831.94;;;15.33;44.48
30708;BME280;17458;48.958;8.284;2023-03-25T13:08:25;99828.50;;;15.79;44.34
30708;BME280;17458;48.958;8.284;2023-03-25T13:11:17;99834.38;;;15.61;44.28
30708;BME280;17458;48.958;8.284;2023-03-25T13:14:11;99827.88;;;15.50;45.11
30708;BME280;17458;48.958;8.284;2023-03-25T13:17:00;99828.78;;;15.50;45.52
30708;BME280;17458;48.958;8.284;2023-03-25T13:19:46;99841.50;;;15.60;45.80
30708;BME280;17458;48.958;8.284;2023-03-25T13:22:33;99867.53;;;15.30;50.41
30708;BME280;17458;48.958;8.284;2023-03-25T13:25:29;99861.63;;;14.05;59.18
30708;BME280;17458;48.958;8.284;2023-03-25T13:28:20;99857.94;;;14.00;59.39
30708;BME280;17458;48.958;8.284;2023-03-25T13:31:12;99842.38;;;14.17;58.78
30708;BME280;17458;48.958;8.284;2023-03-25T13:34:11;99839.69;;;14.48;57.08
30708;BME280;17458;48.958;8.284;2023-03-25T13:37:31;99845.00;;;14.81;53.20
30708;BME280;17458;48.958;8.284;2023-03-25T13:40:33;99833.25;;;15.12;52.11
30708;BME280;17458;48.958;8.284;2023-03-25T13:43:25;99828.28;;;15.28;47.53
30708;BME280;17458;48.958;8.284;2023-03-25T13:46:25;99823.19;;;15.40;49.23
30708;BME280;17458;48.958;8.284;2023-03-25T13:52:01;99824.69;;;15.66;48.32
30708;BME280;17458;48.958;8.284;2023-03-25T13:54:48;99816.09;;;15.42;48.20
30708;BME280;17458;48.958;8.284;2023-03-25T14:01:20;99842.88;;;15.82;50.71
30708;BME280;17458;48.958;8.284;2023-03-25T14:10:38;99829.44;;;14.65;51.64
30708;BME280;17458;48.958;8.284;2023-03-25T14:13:28;99829.06;;;15.23;50.77
30708;BME280;17458;48.958;8.284;2023-03-25T14:16:17;99816.19;;;15.46;50.13
30708;BME280;17458;48.958;8.284;2023-03-25T14:19:07;99824.13;;;16.29;48.97
30708;BME280;17458;48.958;8.284;2023-03-25T14:21:53;99823.50;;;16.42;47.86
30708;BME280;17458;48.958;8.284;2023-03-25T14:24:38;99830.06;;;16.61;48.84
30708;BME280;17458;48.958;8.284;2023-03-25T14:27:29;99815.97;;;16.71;48.21
30708;BME280;17458;48.958;8.284;2023-03-25T14:30:26;99819.72;;;16.31;47.46
30708;BME280;17458;48.958;8.284;2023-03-25T14:33:11;99821.56;;;15.88;48.52
30708;BME280;17458;48.958;8.284;2023-03-25T14:35:55;99809.03;;;16.33;48.34
30708;BME280;17458;48.958;8.284;2023-03-25T14:38:53;99802.69;;;16.77;46.68
30708;BME280;17458;48.958;8.284;2023-03-25T14:42:01;99785.09;;;16.94;44.61
30708;BME280;17458;48.958;8.284;2023-03-25T14:44:48;99782.72;;;16.10;41.94
30708;BME280;17458;48.958;8.284;2023-03-25T14:47:50;99767.53;;;16.60;40.12
30708;BME280;17458;48.958;8.284;2023-03-25T14:50:35;99768.34;;;16.56;40.63
30708;BME280;17458;48.958;8.284;2023-03-25T14:53:19;99764.81;;;16.59;39.65
30708;BME280;17458;48.958;8.284;2023-03-25T14:56:15;99780.13;;;17.22;39.80
30708;BME280;17458;48.958;8.284;2023-03-25T14:59:48;99774.13;;;17.40;40.59
30708;BME280;17458;48.958;8.284;2023-03-25T15:02:19;99774.88;;;17.31;39.75
30708;BME280;17458;48.958;8.284;2023-03-25T15:05:17;99776.41;;;17.11;40.11
30708;BME280;17458;48.958;8.284;2023-03-25T15:11:02;99778.19;;;17.10;40.28
30708;BME280;17458;48.958;8.284;2023-03-25T15:13:49;99779.81;;;17.00;40.09
30708;BME280;17458;48.958;8.284;2023-03-25T15:16:58;99790.06;;;16.72;39.57
30708;BME280;17458;48.958;8.284;2023-03-25T15:20:24;99783.00;;;16.25;40.29
30708;BME280;17458;48.958;8.284;2023-03-25T15:26:40;99782.59;;;16.04;40.86
30708;BME280;17458;48.958;8.284;2023-03-25T15:32:34;99788.22;;;16.18;41.49
30708;BME280;17458;48.958;8.284;2023-03-25T15:35:34;99794.97;;;15.98;41.02
30708;BME280;17458;48.958;8.284;2023-03-25T15:48:11;99773.97;;;16.69;41.50
30708;BME280;17458;48.958;8.284;2023-03-25T15:56:45;99782.56;;;16.51;41.04
30708;BME280;17458;48.958;8.284;2023-03-25T15:59:40;99773.88;;;16.64;41.26
30708;BME280;17458;48.958;8.284;2023-03-25T16:02:36;99770.19;;;16.60;41.00
30708;BME280;17458;48.958;8.284;2023-03-25T16:05:21;99770.56;;;16.30;40.92
30708;BME280;17458;48.958;8.284;2023-03-25T16:08:08;99759.88;;;16.32;41.04
30708;BME280;17458;48.958;8.284;2023-03-25T16:10:54;99759.91;;;16.34;41.69
30708;BME280;17458;48.958;8.284;2023-03-25T16:13:38;99776.16;;;16.41;41.54
30708;BME280;17458;48.958;8.284;2023-03-25T16:16:22;99759.13;;;16.39;42.29
30708;BME280;17458;48.958;8.284;2023-03-25T16:19:12;99764.88;;;16.11;42.01
30708;BME280;17458;48.958;8.284;2023-03-25T16:22:01;99770.03;;;16.50;42.09
30708;BME280;17458;48.958;8.284;2023-03-25T16:24:48;99777.78;;;16.86;42.00
30708;BME280;17458;48.958;8.284;2023-03-25T16:27:36;99766.25;;;16.37;42.93
30708;BME280;17458;48.958;8.284;2023-03-25T16:30:35;99765.53;;;15.98;42.86
30708;BME280;17458;48.958;8.284;2023-03-25T16:33:31;99780.06;;;16.10;42.80
30708;BME280;17458;48.958;8.284;2023-03-25T16:36:15;99781.22;;;15.79;43.38
30708;BME280;17458;48.958;8.284;2023-03-25T16:39:00;99773.16;;;15.78;43.23
30708;BME280;17458;48.958;8.284;2023-03-25T16:41:46;99769.06;;;15.53;44.10
30708;BME280;17458;48.958;8.284;2023-03-25T16:44:32;99776.50;;;15.66;43.13
30708;BME280;17458;48.958;8.284;2023-03-25T16:47:16;99776.91;;;15.45;43.83
30708;BME280;17458;48.958;8.284;2023-03-25T16:50:05;99781.19;;;15.78;42.89
30708;BME280;17458;48.958;8.284;2023-03-25T16:52:50;99772.25;;;15.77;42.99
30708;BME280;17458;48.958;8.284;2023-03-25T16:55:48;99769.13;;;15.98;42.60
30708;BME280;17458;48.958;8.284;2023-03-25T16:58:36;99780.50;;;15.88;42.43